createdAt,value
2022-09-07T00:01:28.297Z,0.80
2022-09-07T00:04:00.670Z,1.02
2022-09-07T00:06:28.332Z,1.08
2022-09-07T00:08:56.224Z,1.15
2022-09-07T00:11:24.072Z,0.75
2022-09-07T00:13:51.559Z,0.80
2022-09-07T00:16:28.925Z,0.68
2022-09-07T00:19:00.883Z,0.90
2022-09-07T00:21:29.531Z,0.52
2022-09-07T00:24:05.138Z,1.17
2022-09-07T00:26:35.475Z,0.73
2022-09-07T00:29:05.356Z,1.10
2022-09-07T00:31:33.724Z,1.00
2022-09-07T00:34:12.339Z,1.08
2022-09-07T00:36:56.449Z,0.70
2022-09-07T00:39:33.568Z,0.80
2022-09-07T00:42:13.877Z,0.60
2022-09-07T00:45:10.757Z,1.00
2022-09-07T00:47:48.244Z,0.80
2022-09-07T00:50:34.444Z,0.68
2022-09-07T00:53:17.936Z,0.80
2022-09-07T00:55:47.601Z,0.85
2022-09-07T00:58:16.118Z,0.88
2022-09-07T01:00:46.500Z,0.77
2022-09-07T01:03:16.420Z,0.90
2022-09-07T01:06:06.322Z,0.95
2022-09-07T01:08:38.218Z,0.90
2022-09-07T01:11:06.974Z,0.90
2022-09-07T01:13:35.278Z,0.90
2022-09-07T01:16:06.263Z,0.85
2022-09-07T01:18:52.923Z,0.70
2022-09-07T01:21:32.743Z,0.82
2022-09-07T01:24:26.525Z,0.80
2022-09-07T01:27:12.505Z,1.30
2022-09-07T01:29:56.152Z,1.00
2022-09-07T01:32:42.107Z,0.80
2022-09-07T01:35:33.140Z,1.20
2022-09-07T01:38:13.513Z,0.95
2022-09-07T01:40:44.294Z,0.90
2022-09-07T01:43:25.233Z,0.80
2022-09-07T01:45:55.947Z,0.70
2022-09-07T01:48:26.020Z,0.60
2022-09-07T01:51:24.531Z,0.77
2022-09-07T01:54:05.570Z,1.08
2022-09-07T01:56:40.982Z,0.70
2022-09-07T01:59:27.705Z,0.70
2022-09-07T02:02:19.355Z,0.68
2022-09-07T02:04:56.332Z,0.85
2022-09-07T02:07:35.281Z,0.75
2022-09-07T02:10:27.517Z,0.60
2022-09-07T02:13:17.348Z,0.95
2022-09-07T02:15:56.955Z,0.90
2022-09-07T02:18:27.733Z,0.80
2022-09-07T02:20:59.062Z,0.85
2022-09-07T02:23:36.235Z,0.63
2022-09-07T02:26:08.656Z,0.90
2022-09-07T02:28:42.590Z,0.70
2022-09-07T02:31:13.389Z,0.65
2022-09-07T02:33:42.615Z,0.65
2022-09-07T02:36:12.093Z,0.90
2022-09-07T02:38:48.979Z,1.02
2022-09-07T02:41:46.869Z,0.60
2022-09-07T02:44:20.254Z,0.80
2022-09-07T02:47:00.132Z,0.60
2022-09-07T02:49:44.376Z,0.73
2022-09-07T02:52:41.462Z,0.95
2022-09-07T02:55:20.433Z,0.80
2022-09-07T02:58:18.880Z,1.02
2022-09-07T03:01:16.112Z,0.88
2022-09-07T03:04:24.502Z,0.85
2022-09-07T03:06:59.642Z,0.82
2022-09-07T03:09:32.225Z,0.88
2022-09-07T03:12:03.382Z,0.85
2022-09-07T03:14:33.501Z,1.00
2022-09-07T03:17:04.138Z,0.90
2022-09-07T03:19:34.415Z,0.80
2022-09-07T03:22:01.875Z,1.00
2022-09-07T03:24:29.765Z,0.90
2022-09-07T03:26:58.430Z,1.05
2022-09-07T03:29:39.133Z,0.63
2022-09-07T03:32:11.357Z,1.00
2022-09-07T03:34:38.663Z,0.60
2022-09-07T03:37:06.274Z,0.68
2022-09-07T03:39:35.551Z,0.82
2022-09-07T03:42:03.029Z,0.88
2022-09-07T03:44:36.451Z,1.00
2022-09-07T03:47:07.828Z,0.82
2022-09-07T03:49:36.271Z,0.82
2022-09-07T03:52:04.546Z,0.77
2022-09-07T03:54:33.604Z,0.60
2022-09-07T03:57:03.562Z,1.15
2022-09-07T03:59:31.264Z,0.90
2022-09-07T04:02:01.222Z,0.70
2022-09-07T04:04:29.167Z,1.02
2022-09-07T04:06:56.585Z,0.80
2022-09-07T04:09:24.306Z,1.00
2022-09-07T04:11:54.458Z,0.70
2022-09-07T04:14:22.379Z,0.90
2022-09-07T04:16:52.784Z,1.10
2022-09-07T04:19:20.097Z,0.68
2022-09-07T04:21:48.014Z,0.82
2022-09-07T04:24:16.756Z,1.02
2022-09-07T04:26:45.338Z,1.00
2022-09-07T04:29:13.794Z,1.10
2022-09-07T04:31:41.486Z,1.00
2022-09-07T04:34:10.131Z,1.40
2022-09-07T04:36:40.610Z,1.00
2022-09-07T04:39:08.285Z,0.80
2022-09-07T04:41:35.934Z,1.20
2022-09-07T04:44:04.864Z,1.20
2022-09-07T04:46:38.923Z,0.90
2022-09-07T04:49:19.360Z,1.10
2022-09-07T04:51:49.832Z,1.20
2022-09-07T04:54:37.610Z,0.80
2022-09-07T04:57:06.034Z,1.00
2022-09-07T04:59:34.120Z,1.10
2022-09-07T05:02:02.935Z,0.93
2022-09-07T05:04:31.554Z,1.23
2022-09-07T05:07:02.625Z,0.98
2022-09-07T05:09:33.828Z,0.90
2022-09-07T05:12:02.092Z,1.05
2022-09-07T05:14:29.542Z,0.75
2022-09-07T05:16:57.600Z,1.75
2022-09-07T05:19:25.550Z,1.20
2022-09-07T05:21:53.530Z,1.15
2022-09-07T05:24:21.385Z,1.02
2022-09-07T05:26:48.857Z,0.93
2022-09-07T05:32:14.810Z,0.98
2022-09-07T05:34:46.753Z,0.70
2022-09-07T05:37:22.337Z,1.00
2022-09-07T05:39:52.247Z,1.05
2022-09-07T05:42:28.527Z,0.90
2022-09-07T05:44:56.966Z,1.50
2022-09-07T05:47:30.351Z,0.95
2022-09-07T05:50:11.639Z,0.80
2022-09-07T05:52:42.003Z,1.23
2022-09-07T05:55:28.839Z,0.70
2022-09-07T05:58:07.083Z,0.77
2022-09-07T06:00:37.477Z,1.40
2022-09-07T06:03:15.716Z,1.33
2022-09-07T06:05:43.992Z,1.00
2022-09-07T06:08:15.700Z,2.22
2022-09-07T06:10:52.229Z,1.40
2022-09-07T06:13:27.455Z,1.35
2022-09-07T06:16:04.914Z,1.50
2022-09-07T06:18:50.630Z,1.40
2022-09-07T06:21:26.962Z,1.23
2022-09-07T06:23:55.621Z,1.30
2022-09-07T06:26:29.547Z,0.93
2022-09-07T06:34:58.217Z,0.60
2022-09-07T06:37:26.603Z,1.02
2022-09-07T06:39:54.797Z,0.65
2022-09-07T06:42:33.336Z,0.82
2022-09-07T06:45:07.293Z,0.30
2022-09-07T06:47:38.219Z,0.55
2022-09-07T06:50:14.472Z,0.60
2022-09-07T06:55:52.219Z,0.63
2022-09-07T06:58:25.534Z,0.45
2022-09-07T07:00:54.220Z,0.40
2022-09-07T07:03:22.564Z,0.45
2022-09-07T07:06:02.161Z,0.70
2022-09-07T07:08:36.442Z,0.98
2022-09-07T07:11:34.531Z,1.05
2022-09-07T07:14:07.965Z,0.60
2022-09-07T07:16:36.922Z,0.68
2022-09-07T07:19:08.746Z,0.70
2022-09-07T07:22:07.353Z,0.80
2022-09-07T07:24:29.016Z,0.68
2022-09-07T07:27:07.665Z,1.10
2022-09-07T07:29:46.705Z,0.90
2022-09-07T07:32:21.226Z,0.50
2022-09-07T07:34:49.177Z,0.50
2022-09-07T07:37:17.510Z,0.60
2022-09-07T07:42:51.787Z,0.40
2022-09-07T07:45:55.243Z,0.47
2022-09-07T07:48:44.679Z,0.77
2022-09-07T07:51:14.331Z,0.80
2022-09-07T07:53:42.854Z,0.75
2022-09-07T07:56:14.040Z,0.40
2022-09-07T07:59:00.299Z,0.52
2022-09-07T08:01:30.671Z,0.40
2022-09-07T08:04:04.549Z,0.70
2022-09-07T08:06:35.315Z,0.70
2022-09-07T08:09:14.254Z,1.25
2022-09-07T08:11:47.954Z,1.70
2022-09-07T08:14:16.841Z,1.30
2022-09-07T08:16:49.324Z,1.40
2022-09-07T08:19:16.981Z,1.08
2022-09-07T08:21:47.012Z,0.93
2022-09-07T08:24:17.458Z,1.00
2022-09-07T08:26:49.892Z,1.10
2022-09-07T08:29:30.181Z,1.13
2022-09-07T08:32:10.897Z,1.05
2022-09-07T08:34:41.243Z,0.75
2022-09-07T08:37:11.463Z,1.27
2022-09-07T08:39:38.970Z,1.08
2022-09-07T08:42:33.938Z,0.95
2022-09-07T08:45:15.852Z,1.20
2022-09-07T08:47:49.603Z,0.70
2022-09-07T08:50:50.463Z,1.02
2022-09-07T08:53:25.303Z,1.00
2022-09-07T08:56:09.672Z,1.20
2022-09-07T08:58:49.449Z,0.80
2022-09-07T09:01:35.629Z,0.50
2022-09-07T09:04:15.986Z,0.80
2022-09-07T09:07:28.466Z,0.73
2022-09-07T09:10:19.897Z,0.70
2022-09-07T09:13:20.182Z,1.05
2022-09-07T09:16:36.704Z,0.80
2022-09-07T09:22:42.487Z,0.90
2022-09-07T09:25:37.797Z,0.98
2022-09-07T09:28:14.584Z,0.80
2022-09-07T09:30:47.261Z,0.98
2022-09-07T09:33:24.530Z,1.27
2022-09-07T09:35:59.533Z,0.95
2022-09-07T09:38:45.308Z,0.70
2022-09-07T09:41:17.041Z,0.85
2022-09-07T09:43:49.241Z,0.85
2022-09-07T09:46:29.649Z,0.63
2022-09-07T09:49:06.439Z,1.00
2022-09-07T09:54:48.204Z,0.80
2022-09-07T10:06:24.392Z,0.82
2022-09-07T10:09:18.508Z,1.00
2022-09-07T10:12:10.061Z,1.02
2022-09-07T10:14:49.864Z,0.70
2022-09-07T10:17:47.134Z,0.90
2022-09-07T10:20:24.272Z,0.80
2022-09-07T10:23:01.232Z,0.40
2022-09-07T10:25:40.607Z,1.00
2022-09-07T10:31:40.253Z,1.00
2022-09-07T10:34:31.743Z,1.00
2022-09-07T10:37:10.228Z,1.20
2022-09-07T10:39:42.481Z,1.00
2022-09-07T10:42:11.299Z,0.90
2022-09-07T10:45:02.224Z,0.60
2022-09-07T10:48:11.094Z,0.70
2022-09-07T10:51:05.139Z,0.73
2022-09-07T10:57:24.209Z,0.90
2022-09-07T11:00:13.167Z,0.60
2022-09-07T11:03:25.963Z,0.68
2022-09-07T11:06:18.690Z,0.63
2022-09-07T11:09:41.959Z,0.60
2022-09-07T11:12:22.079Z,0.82
2022-09-07T11:15:12.466Z,0.60
2022-09-07T11:17:53.045Z,0.60
2022-09-07T11:20:38.858Z,0.60
2022-09-07T11:23:41.025Z,0.73
2022-09-07T11:26:33.092Z,0.60
2022-09-07T11:29:29.476Z,0.40
2022-09-07T11:32:08.653Z,0.60
2022-09-07T11:34:46.646Z,0.70
2022-09-07T11:38:04.076Z,0.60
2022-09-07T11:41:18.249Z,0.50
2022-09-07T11:44:33.546Z,0.55
2022-09-07T11:47:21.498Z,0.52
2022-09-07T11:49:59.489Z,0.77
2022-09-07T11:52:44.884Z,0.50
2022-09-07T11:55:29.716Z,0.55
2022-09-07T11:58:29.950Z,1.05
2022-09-07T12:01:36.762Z,0.90
2022-09-07T12:04:19.718Z,0.80
2022-09-07T12:07:18.834Z,0.52
2022-09-07T12:10:24.878Z,0.50
2022-09-07T12:13:25.207Z,0.60
2022-09-07T12:15:57.139Z,0.70
2022-09-07T12:19:07.040Z,0.73
2022-09-07T12:21:53.459Z,0.60
2022-09-07T12:24:34.928Z,0.70
2022-09-07T12:27:16.609Z,0.47
2022-09-07T12:29:45.592Z,0.60
2022-09-07T12:35:34.118Z,0.52
2022-09-07T12:38:26.983Z,0.70
2022-09-07T12:43:37.079Z,0.80
2022-09-07T12:46:39.753Z,0.40
2022-09-07T12:49:25.777Z,0.60
2022-09-07T12:52:27.872Z,0.50
2022-09-07T12:55:28.461Z,1.00
2022-09-07T12:58:19.837Z,0.60
2022-09-07T13:01:15.287Z,0.40
2022-09-07T13:04:37.907Z,0.70
2022-09-07T13:07:24.385Z,0.65
2022-09-07T13:10:05.317Z,0.60
2022-09-07T13:12:57.279Z,0.60
2022-09-07T13:16:15.016Z,0.60
2022-09-07T13:18:45.240Z,0.60
2022-09-07T13:21:17.738Z,0.88
2022-09-07T13:24:50.296Z,0.60
2022-09-07T13:27:39.457Z,0.73
2022-09-07T13:30:16.717Z,0.93
2022-09-07T13:35:32.381Z,0.60
2022-09-07T13:38:09.605Z,0.88
2022-09-07T13:40:45.107Z,0.60
2022-09-07T13:43:20.066Z,0.70
2022-09-07T13:45:53.196Z,0.40
2022-09-07T13:48:34.572Z,0.55
2022-09-07T13:51:29.151Z,0.60
2022-09-07T13:53:56.943Z,0.45
2022-09-07T13:56:42.207Z,0.30
2022-09-07T13:59:25.110Z,1.67
2022-09-07T14:01:58.930Z,0.60
2022-09-07T14:04:50.740Z,0.70
2022-09-07T14:07:28.862Z,0.57
2022-09-07T14:10:22.835Z,0.60
2022-09-07T14:13:05.339Z,0.50
2022-09-07T14:15:45.605Z,0.55
2022-09-07T14:18:20.074Z,0.57
2022-09-07T14:20:51.281Z,0.60
2022-09-07T14:23:31.511Z,0.50
2022-09-07T14:26:25.634Z,0.70
2022-09-07T14:28:55.711Z,0.50
2022-09-07T14:31:41.329Z,0.50
2022-09-07T14:34:10.035Z,0.63
2022-09-07T14:36:45.899Z,0.40
2022-09-07T14:39:17.896Z,0.60
2022-09-07T14:41:46.757Z,0.55
2022-09-07T14:44:39.054Z,0.95
2022-09-07T14:47:43.982Z,0.60
2022-09-07T14:50:37.133Z,0.50
2022-09-07T14:56:14.520Z,0.50
2022-09-07T14:58:42.288Z,0.55
2022-09-07T15:01:37.458Z,0.50
2022-09-07T15:04:28.281Z,0.70
2022-09-07T15:07:47.781Z,0.60
2022-09-07T15:10:21.160Z,0.50
2022-09-07T15:12:56.776Z,0.60
2022-09-07T15:15:37.177Z,0.40
2022-09-07T15:18:55.592Z,0.68
2022-09-07T15:21:45.055Z,0.50
2022-09-07T15:24:17.976Z,0.60
2022-09-07T15:27:03.194Z,0.50
2022-09-07T15:29:33.478Z,0.50
2022-09-07T15:32:04.799Z,0.60
2022-09-07T15:34:35.626Z,0.50
2022-09-07T15:38:01.226Z,0.60
2022-09-07T15:40:01.920Z,0.50
2022-09-07T15:45:22.334Z,0.68
2022-09-07T15:47:52.833Z,0.50
2022-09-07T15:50:44.222Z,0.80
2022-09-07T15:56:14.220Z,1.20
2022-09-07T15:58:46.967Z,1.27
2022-09-07T16:04:15.246Z,0.90
2022-09-07T16:06:47.871Z,0.95
2022-09-07T16:09:17.453Z,1.10
2022-09-07T16:11:51.231Z,1.10
2022-09-07T16:14:28.848Z,0.70
2022-09-07T16:19:48.649Z,0.73
2022-09-07T16:25:10.305Z,0.82
2022-09-07T16:27:38.406Z,1.00
2022-09-07T16:30:10.569Z,1.33
2022-09-07T16:32:45.527Z,2.20
2022-09-07T16:35:13.669Z,1.50
2022-09-07T16:38:43.587Z,1.52
2022-09-07T16:40:30.721Z,1.73
2022-09-07T16:42:58.373Z,1.48
2022-09-07T16:48:16.733Z,1.20
2022-09-07T16:50:55.417Z,1.30
2022-09-07T16:53:39.647Z,1.98
2022-09-07T16:56:09.613Z,1.70
2022-09-07T16:58:42.928Z,1.30
2022-09-07T17:01:13.629Z,2.00
2022-09-07T17:03:56.168Z,2.00
2022-09-07T17:06:30.031Z,2.28
2022-09-07T17:08:59.687Z,1.85
2022-09-07T17:11:33.651Z,2.60
2022-09-07T17:14:08.933Z,2.47
2022-09-07T17:16:39.496Z,2.60
2022-09-07T17:22:12.589Z,2.75
2022-09-07T17:24:41.295Z,4.25
2022-09-07T17:27:13.377Z,2.75
2022-09-07T17:29:42.971Z,2.78
2022-09-07T17:32:27.819Z,3.95
2022-09-07T17:34:58.970Z,2.80
2022-09-07T17:37:29.566Z,3.10
2022-09-07T17:39:57.623Z,3.38
2022-09-07T17:43:38.764Z,3.80
2022-09-07T17:45:22.636Z,11.23
2022-09-07T17:47:56.289Z,7.45
2022-09-07T17:50:23.854Z,6.35
2022-09-07T17:52:53.943Z,4.30
2022-09-07T17:55:28.813Z,3.33
2022-09-07T17:57:57.119Z,3.85
2022-09-07T18:00:29.207Z,3.10
2022-09-07T18:03:00.843Z,3.65
2022-09-07T18:05:33.661Z,3.03
2022-09-07T18:08:01.125Z,2.40
2022-09-07T18:13:35.662Z,2.05
2022-09-07T18:16:19.621Z,2.22
2022-09-07T18:18:49.009Z,2.80
2022-09-07T18:21:19.640Z,3.10
2022-09-07T18:23:54.775Z,2.72
2022-09-07T18:26:26.699Z,2.60
2022-09-07T18:29:05.622Z,2.28
2022-09-07T18:31:36.726Z,2.03
2022-09-07T18:34:08.183Z,2.47
2022-09-07T18:36:39.673Z,1.88
2022-09-07T18:39:07.752Z,2.25
2022-09-07T18:41:34.982Z,2.15
2022-09-07T18:44:03.069Z,1.98
2022-09-07T18:46:30.359Z,2.03
2022-09-07T18:48:58.265Z,2.47
2022-09-07T18:51:27.207Z,2.90
2022-09-07T18:53:55.632Z,3.13
2022-09-07T18:56:23.892Z,3.05
2022-09-07T18:58:59.987Z,3.53
2022-09-07T19:01:32.058Z,3.65
2022-09-07T19:04:04.985Z,4.18
2022-09-07T19:06:32.759Z,3.17
2022-09-07T19:09:04.937Z,3.10
2022-09-07T19:11:38.447Z,2.85
2022-09-07T19:14:08.213Z,2.13
2022-09-07T19:16:36.627Z,2.58
2022-09-07T19:19:09.213Z,2.78
2022-09-07T19:21:39.492Z,2.55
2022-09-07T19:24:08.433Z,2.35
2022-09-07T19:26:41.836Z,2.50
2022-09-07T19:29:16.953Z,2.33
2022-09-07T19:32:05.000Z,2.60
2022-09-07T19:34:39.962Z,2.33
2022-09-07T19:37:09.102Z,2.65
2022-09-07T19:39:37.189Z,2.85
2022-09-07T19:42:13.875Z,2.40
2022-09-07T19:44:41.420Z,1.98
2022-09-07T19:47:09.374Z,2.00
2022-09-07T19:49:38.119Z,2.15
2022-09-07T19:52:11.710Z,2.40
2022-09-07T19:54:42.458Z,2.20
2022-09-07T19:57:12.166Z,2.67
2022-09-07T19:59:43.257Z,3.40
2022-09-07T20:02:11.774Z,2.72
2022-09-07T20:04:41.704Z,3.17
2022-09-07T20:07:13.517Z,3.38
2022-09-07T20:09:43.918Z,2.85
2022-09-07T20:12:11.138Z,2.70
2022-09-07T20:14:39.120Z,2.83
2022-09-07T20:17:06.366Z,2.30
2022-09-07T20:19:34.328Z,3.00
2022-09-07T20:22:09.266Z,2.75
2022-09-07T20:24:36.510Z,3.60
2022-09-07T20:27:12.303Z,3.17
2022-09-07T20:29:42.990Z,4.63
2022-09-07T20:32:10.489Z,5.65
2022-09-07T20:34:40.190Z,5.60
2022-09-07T20:37:11.051Z,5.55
2022-09-07T20:39:41.083Z,4.75
2022-09-07T20:42:08.923Z,10.85
2022-09-07T20:44:36.324Z,8.95
2022-09-07T20:47:07.371Z,8.55
2022-09-07T20:49:35.665Z,8.63
2022-09-07T20:52:13.957Z,7.38
2022-09-07T20:57:38.193Z,4.53
2022-09-07T21:00:06.118Z,4.38
2022-09-07T21:02:33.621Z,5.43
2022-09-07T21:05:10.501Z,5.45
2022-09-07T21:07:42.010Z,5.85
2022-09-07T21:10:12.637Z,5.75
2022-09-07T21:12:50.540Z,4.85
2022-09-07T21:15:18.664Z,6.78
2022-09-07T21:17:46.040Z,4.80
2022-09-07T21:20:16.549Z,4.75
2022-09-07T21:22:44.125Z,4.70
2022-09-07T21:25:11.258Z,4.85
2022-09-07T21:27:39.239Z,4.15
2022-09-07T21:30:07.398Z,3.65
2022-09-07T21:32:34.502Z,3.65
2022-09-07T21:35:05.425Z,3.90
2022-09-07T21:37:32.629Z,3.60
2022-09-07T21:40:01.272Z,3.55
2022-09-07T21:42:30.357Z,3.10
2022-09-07T21:44:58.046Z,2.40
2022-09-07T21:47:25.509Z,3.05
2022-09-07T21:49:53.233Z,3.15
2022-09-07T21:52:21.286Z,2.47
2022-09-07T21:54:48.685Z,2.55
2022-09-07T21:57:17.605Z,2.10
2022-09-07T21:59:45.597Z,2.80
2022-09-07T22:02:19.511Z,2.75
2022-09-07T22:04:46.983Z,2.30
2022-09-07T22:07:14.682Z,2.00
2022-09-07T22:09:42.147Z,2.75
2022-09-07T22:12:09.492Z,1.95
2022-09-07T22:14:36.674Z,2.22
2022-09-07T22:17:04.751Z,2.28
2022-09-07T22:19:35.819Z,2.53
2022-09-07T22:22:03.137Z,3.05
2022-09-07T22:24:31.179Z,3.00
2022-09-07T22:26:59.006Z,3.20
2022-09-07T22:29:27.011Z,2.13
2022-09-07T22:32:04.696Z,2.38
2022-09-07T22:34:33.719Z,2.42
2022-09-07T22:37:01.263Z,2.63
2022-09-07T22:39:28.746Z,2.60
2022-09-07T22:41:56.269Z,2.67
2022-09-07T22:44:30.610Z,3.00
2022-09-07T22:46:59.165Z,2.28
2022-09-07T22:49:27.212Z,2.40
2022-09-07T22:51:54.683Z,2.53
2022-09-07T22:54:23.270Z,1.80
2022-09-07T22:56:50.748Z,1.65
2022-09-07T22:59:20.699Z,2.10
2022-09-07T23:01:51.429Z,2.22
2022-09-07T23:04:19.285Z,3.67
2022-09-07T23:06:46.519Z,2.70
2022-09-07T23:09:18.843Z,3.15
2022-09-07T23:11:47.599Z,2.47
2022-09-07T23:14:25.300Z,1.80
2022-09-07T23:17:04.032Z,2.17
2022-09-07T23:19:31.896Z,2.28
2022-09-07T23:21:59.877Z,2.20
2022-09-07T23:24:30.673Z,1.90
2022-09-07T23:27:07.500Z,1.63
2022-09-07T23:29:37.090Z,1.50
2022-09-07T23:32:06.716Z,2.15
2022-09-07T23:34:36.718Z,1.83
2022-09-07T23:37:10.405Z,1.80
2022-09-07T23:39:38.823Z,2.10
2022-09-07T23:42:12.031Z,2.35
2022-09-07T23:44:44.038Z,3.08
2022-09-07T23:47:13.584Z,2.08
2022-09-07T23:49:41.597Z,1.70
2022-09-07T23:52:13.474Z,1.73
2022-09-07T23:54:40.993Z,1.80
2022-09-07T23:57:10.224Z,1.90
2022-09-07T23:59:40.448Z,1.55
